Time;durP1;ratioP1;P1;durP2;ratioP2;P2;SDS_P1;SDS_P2;PMS_P1;PMS_P2;Temp;Humidity;BMP_temperature;BMP_pressure;BME280_temperature;BME280_humidity;BME280_pressure;Samples;Min_cycle;Max_cycle;Signal;HPM_P1;HPM_P2
2023/03/19 00:01:48;;;;;;;1.42;0.90;;;;;;;;;;5046042;28;20157;-65
2023/03/19 00:04:18;;;;;;;1.40;0.90;;;;;;;;;;5062835;28;20121;-63
2023/03/19 00:06:45;;;;;;;4.13;1.17;;;;;;;;;;5056628;28;20390;-64
2023/03/19 00:09:12;;;;;;;2.25;0.90;;;;;;;;;;5069290;28;20228;-65
2023/03/19 00:11:38;;;;;;;1.65;1.00;;;;;;;;;;5053747;28;20060;-64
2023/03/19 00:14:05;;;;;;;2.78;1.00;;;;;;;;;;5059912;28;20084;-64
2023/03/19 00:16:32;;;;;;;2.30;1.00;;;;;;;;;;5044358;28;20063;-63
2023/03/19 00:18:58;;;;;;;1.65;0.95;;;;;;;;;;5057968;28;20088;-64
2023/03/19 00:21:26;;;;;;;1.67;1.00;;;;;;;;;;5052717;28;20110;-64
2023/03/19 00:23:52;;;;;;;3.53;1.37;;;;;;;;;;5071559;28;20059;-64
2023/03/19 00:26:19;;;;;;;2.38;1.10;;;;;;;;;;5035618;28;20059;-64
2023/03/19 00:28:46;;;;;;;2.92;1.00;;;;;;;;;;5030271;28;20058;-65
2023/03/19 00:31:13;;;;;;;3.17;1.20;;;;;;;;;;5037916;28;20060;-64
2023/03/19 00:33:39;;;;;;;1.60;1.10;;;;;;;;;;5055161;28;20094;-65
2023/03/19 00:36:06;;;;;;;2.10;1.02;;;;;;;;;;5052323;28;20052;-62
2023/03/19 00:38:34;;;;;;;4.80;0.95;;;;;;;;;;5048942;28;20056;-65
2023/03/19 00:41:01;;;;;;;1.60;1.00;;;;;;;;;;5055531;28;20163;-64
2023/03/19 00:43:27;;;;;;;1.80;1.13;;;;;;;;;;5055796;28;20068;-65
2023/03/19 00:45:54;;;;;;;1.63;0.77;;;;;;;;;;5055664;28;20075;-64
2023/03/19 00:48:21;;;;;;;2.72;1.00;;;;;;;;;;5053893;28;20083;-64
2023/03/19 00:50:47;;;;;;;1.60;1.00;;;;;;;;;;5085470;28;20055;-63
2023/03/19 00:53:14;;;;;;;2.45;0.90;;;;;;;;;;5072283;28;20084;-65
2023/03/19 00:55:42;;;;;;;1.02;0.82;;;;;;;;;;5066396;28;20138;-65
2023/03/19 00:58:09;;;;;;;2.45;1.00;;;;;;;;;;5054884;28;20052;-64
2023/03/19 01:00:35;;;;;;;1.77;1.05;;;;;;;;;;5032361;28;20068;-63
2023/03/19 01:03:02;;;;;;;1.67;0.85;;;;;;;;;;5047121;28;20263;-65
2023/03/19 01:05:29;;;;;;;2.38;1.00;;;;;;;;;;5051223;28;20136;-66
2023/03/19 01:07:55;;;;;;;2.72;1.00;;;;;;;;;;5061272;28;20082;-65
2023/03/19 01:10:23;;;;;;;2.40;1.17;;;;;;;;;;5049768;28;20056;-64
2023/03/19 01:12:51;;;;;;;2.85;1.48;;;;;;;;;;5081598;28;20060;-64
2023/03/19 01:15:18;;;;;;;1.85;1.00;;;;;;;;;;5046621;28;20068;-65
2023/03/19 01:17:45;;;;;;;1.63;0.98;;;;;;;;;;5051346;28;20064;-63
2023/03/19 01:20:13;;;;;;;1.80;1.00;;;;;;;;;;5056779;28;20064;-63
2023/03/19 01:22:40;;;;;;;1.40;0.90;;;;;;;;;;5044972;28;20052;-66
2023/03/19 01:25:07;;;;;;;2.00;1.02;;;;;;;;;;5056695;28;20063;-65
2023/03/19 01:27:34;;;;;;;2.80;1.00;;;;;;;;;;5015441;28;20059;-65
2023/03/19 01:30:02;;;;;;;1.50;1.00;;;;;;;;;;5037830;28;20075;-64
2023/03/19 01:32:29;;;;;;;1.25;0.93;;;;;;;;;;5040532;28;20044;-64
2023/03/19 01:34:56;;;;;;;2.95;1.00;;;;;;;;;;5041156;28;20044;-65
2023/03/19 01:37:23;;;;;;;2.85;1.17;;;;;;;;;;4985762;28;20082;-63
2023/03/19 01:39:50;;;;;;;1.83;1.00;;;;;;;;;;5038605;28;20127;-64
2023/03/19 01:42:16;;;;;;;2.78;1.20;;;;;;;;;;5036705;28;20127;-65
2023/03/19 01:44:43;;;;;;;2.78;0.90;;;;;;;;;;5058219;28;20124;-66
2023/03/19 01:47:15;;;;;;;1.98;0.90;;;;;;;;;;4998774;28;20242;-64
2023/03/19 01:49:44;;;;;;;1.70;0.95;;;;;;;;;;5043519;28;20185;-64
2023/03/19 01:52:12;;;;;;;1.63;0.90;;;;;;;;;;5030301;28;20048;-65
2023/03/19 01:54:40;;;;;;;1.85;1.10;;;;;;;;;;5006588;28;20135;-65
2023/03/19 01:57:07;;;;;;;2.57;1.00;;;;;;;;;;5044846;28;20112;-65
2023/03/19 01:59:37;;;;;;;2.20;1.00;;;;;;;;;;5080756;28;20315;-65
2023/03/19 02:02:10;;;;;;;1.65;0.93;;;;;;;;;;5030330;28;20040;-65
2023/03/19 02:04:42;;;;;;;1.20;0.80;;;;;;;;;;5014568;28;20071;-64
2023/03/19 02:07:16;;;;;;;2.20;1.10;;;;;;;;;;5019821;28;20063;-64
2023/03/19 02:09:43;;;;;;;2.90;1.10;;;;;;;;;;5028303;28;20052;-64
2023/03/19 02:12:13;;;;;;;2.08;0.85;;;;;;;;;;5028736;28;20062;-64
2023/03/19 02:14:40;;;;;;;1.73;0.90;;;;;;;;;;5047248;28;20074;-64
2023/03/19 02:17:07;;;;;;;1.48;0.80;;;;;;;;;;5021475;28;20079;-65
2023/03/19 02:19:38;;;;;;;1.30;0.90;;;;;;;;;;5055788;28;20131;-64
2023/03/19 02:22:08;;;;;;;3.05;1.10;;;;;;;;;;5005832;28;20111;-62
2023/03/19 02:24:36;;;;;;;1.50;0.90;;;;;;;;;;5006300;28;20324;-64
2023/03/19 02:27:08;;;;;;;3.28;1.25;;;;;;;;;;4986638;28;20143;-63
2023/03/19 02:29:34;;;;;;;1.20;0.90;;;;;;;;;;5025767;28;20060;-65
2023/03/19 02:37:08;;;;;;;2.08;1.00;;;;;;;;;;4998821;28;20148;-63
2023/03/19 02:39:38;;;;;;;2.60;1.05;;;;;;;;;;5025045;28;20048;-63
2023/03/19 02:42:09;;;;;;;2.22;1.00;;;;;;;;;;5032745;28;20153;-64
2023/03/19 02:44:36;;;;;;;1.65;1.00;;;;;;;;;;5022197;28;20056;-66
2023/03/19 02:47:02;;;;;;;0.80;0.80;;;;;;;;;;5028530;28;20056;-67
2023/03/19 02:49:29;;;;;;;1.17;0.80;;;;;;;;;;5036368;28;20072;-67
2023/03/19 02:51:55;;;;;;;3.65;1.02;;;;;;;;;;5039511;28;20068;-66
2023/03/19 02:54:22;;;;;;;2.75;1.02;;;;;;;;;;5029513;28;20106;-66
2023/03/19 02:56:49;;;;;;;2.22;1.20;;;;;;;;;;5031925;28;20084;-66
2023/03/19 02:59:17;;;;;;;3.83;1.05;;;;;;;;;;5029869;28;20060;-66
2023/03/19 03:01:44;;;;;;;1.25;0.80;;;;;;;;;;5046615;28;20048;-66
2023/03/19 03:04:10;;;;;;;1.55;0.80;;;;;;;;;;5005211;28;20350;-67
2023/03/19 03:06:37;;;;;;;1.50;1.00;;;;;;;;;;5040041;28;20113;-65
2023/03/19 03:09:04;;;;;;;1.60;0.93;;;;;;;;;;5053407;28;20057;-67
2023/03/19 03:11:30;;;;;;;1.17;0.80;;;;;;;;;;5030913;28;20078;-65
2023/03/19 03:13:57;;;;;;;0.90;0.73;;;;;;;;;;5060379;28;20080;-65
2023/03/19 03:16:25;;;;;;;1.90;0.90;;;;;;;;;;5056344;28;20086;-67
2023/03/19 03:18:51;;;;;;;1.80;0.80;;;;;;;;;;5043856;28;20114;-66
2023/03/19 03:21:20;;;;;;;1.98;0.82;;;;;;;;;;5025751;28;20057;-66
2023/03/19 03:23:47;;;;;;;1.20;0.90;;;;;;;;;;5039228;28;20068;-67
2023/03/19 03:26:13;;;;;;;1.23;0.82;;;;;;;;;;5043302;28;20084;-64
2023/03/19 03:28:40;;;;;;;2.85;1.00;;;;;;;;;;5025420;28;20132;-66
2023/03/19 03:31:07;;;;;;;1.73;0.90;;;;;;;;;;5020493;28;20041;-67
2023/03/19 03:33:36;;;;;;;2.20;1.00;;;;;;;;;;5036586;28;20132;-65
2023/03/19 03:36:02;;;;;;;1.55;0.93;;;;;;;;;;5037577;28;20058;-66
2023/03/19 03:38:31;;;;;;;1.35;0.90;;;;;;;;;;5030984;28;20083;-67
2023/03/19 03:40:57;;;;;;;;;;;;;;;;;;5058179;28;20250;-67
2023/03/19 03:43:24;;;;;;;3.35;1.00;;;;;;;;;;5055385;28;19947;-65
2023/03/19 03:45:51;;;;;;;1.35;0.98;;;;;;;;;;5034776;28;20067;-65
2023/03/19 03:48:17;;;;;;;2.72;0.90;;;;;;;;;;5059880;28;20087;-66
2023/03/19 03:50:45;;;;;;;1.75;0.93;;;;;;;;;;5033258;28;20205;-66
2023/03/19 03:53:12;;;;;;;1.73;0.93;;;;;;;;;;5029757;28;20067;-65
2023/03/19 03:55:39;;;;;;;1.77;0.90;;;;;;;;;;5050129;28;20189;-66
2023/03/19 03:58:06;;;;;;;1.45;0.95;;;;;;;;;;5022836;28;20045;-65
2023/03/19 04:00:32;;;;;;;1.90;1.00;;;;;;;;;;5021116;28;20142;-64
2023/03/19 04:02:59;;;;;;;4.00;1.10;;;;;;;;;;5022555;28;20075;-66
2023/03/19 04:05:27;;;;;;;2.45;1.27;;;;;;;;;;5015519;28;20057;-66
2023/03/19 04:07:56;;;;;;;1.80;0.90;;;;;;;;;;5042181;28;20110;-67
2023/03/19 04:10:23;;;;;;;2.08;0.98;;;;;;;;;;5060125;28;20044;-66
2023/03/19 04:12:50;;;;;;;3.70;1.40;;;;;;;;;;5038948;28;20056;-65
2023/03/19 04:15:17;;;;;;;3.05;1.20;;;;;;;;;;5051125;28;20072;-65
2023/03/19 04:17:44;;;;;;;1.73;1.10;;;;;;;;;;5038575;28;20056;-66
2023/03/19 04:20:11;;;;;;;2.47;1.17;;;;;;;;;;5060825;28;20048;-65
2023/03/19 04:22:37;;;;;;;3.78;1.10;;;;;;;;;;5039332;28;20045;-69
2023/03/19 04:25:08;;;;;;;2.38;1.20;;;;;;;;;;5037593;28;20068;-66
2023/03/19 04:27:35;;;;;;;1.55;1.10;;;;;;;;;;5054925;28;20117;-65
2023/03/19 04:30:01;;;;;;;2.28;1.10;;;;;;;;;;5059526;28;20116;-65
2023/03/19 04:32:28;;;;;;;1.80;1.20;;;;;;;;;;5032184;28;20102;-66
2023/03/19 04:34:55;;;;;;;2.25;1.00;;;;;;;;;;5021156;28;20080;-65
2023/03/19 04:37:21;;;;;;;2.78;1.15;;;;;;;;;;5035085;28;20087;-67
2023/03/19 04:39:47;;;;;;;1.95;1.20;;;;;;;;;;5012500;28;20089;-65
2023/03/19 04:42:15;;;;;;;3.03;1.40;;;;;;;;;;5049245;28;20139;-66
2023/03/19 04:44:42;;;;;;;2.70;1.30;;;;;;;;;;5018058;28;20063;-66
2023/03/19 04:47:10;;;;;;;2.55;1.20;;;;;;;;;;5023285;28;20049;-67
2023/03/19 04:49:37;;;;;;;1.77;1.15;;;;;;;;;;5039217;28;20072;-65
2023/03/19 04:52:03;;;;;;;2.63;1.30;;;;;;;;;;5024973;28;20063;-65
2023/03/19 04:54:30;;;;;;;2.17;1.17;;;;;;;;;;5036284;28;20278;-66
2023/03/19 04:56:56;;;;;;;3.95;1.38;;;;;;;;;;5060042;28;20064;-66
2023/03/19 04:59:25;;;;;;;2.25;1.30;;;;;;;;;;5030830;28;20135;-65
2023/03/19 05:01:51;;;;;;;2.55;1.27;;;;;;;;;;5055476;28;20044;-65
2023/03/19 05:04:17;;;;;;;2.35;0.85;;;;;;;;;;5032367;28;20131;-66
2023/03/19 05:06:44;;;;;;;4.95;1.35;;;;;;;;;;5055622;28;20139;-65
2023/03/19 05:09:10;;;;;;;2.85;1.30;;;;;;;;;;5013416;28;20082;-65
2023/03/19 05:11:37;;;;;;;1.58;1.02;;;;;;;;;;5019995;28;20047;-66
2023/03/19 05:14:04;;;;;;;3.53;1.45;;;;;;;;;;5031188;28;20071;-66
2023/03/19 05:16:33;;;;;;;3.08;1.40;;;;;;;;;;5037288;28;20084;-65
2023/03/19 05:19:00;;;;;;;2.80;1.42;;;;;;;;;;5049458;28;20052;-67
2023/03/19 05:21:26;;;;;;;3.33;1.67;;;;;;;;;;5032447;28;20087;-65
2023/03/19 05:23:56;;;;;;;3.25;1.50;;;;;;;;;;5047993;28;20060;-66
2023/03/19 05:26:22;;;;;;;3.47;1.80;;;;;;;;;;5009808;28;20056;-65
2023/03/19 05:28:48;;;;;;;3.40;1.63;;;;;;;;;;5032018;28;20049;-65
2023/03/19 05:31:15;;;;;;;3.67;1.75;;;;;;;;;;5028516;28;20057;-64
2023/03/19 05:33:43;;;;;;;4.57;1.98;;;;;;;;;;5014060;28;20049;-67
2023/03/19 05:36:09;;;;;;;4.40;1.88;;;;;;;;;;5019328;28;20049;-65
2023/03/19 05:38:39;;;;;;;3.60;1.90;;;;;;;;;;5034922;28;20138;-65
2023/03/19 05:41:09;;;;;;;3.67;1.95;;;;;;;;;;5015855;28;20068;-67
2023/03/19 05:43:36;;;;;;;4.65;1.90;;;;;;;;;;5037180;28;20052;-66
2023/03/19 05:46:02;;;;;;;4.15;2.15;;;;;;;;;;5030807;28;20049;-64
2023/03/19 05:48:28;;;;;;;4.20;1.90;;;;;;;;;;5038824;28;20084;-65
2023/03/19 05:50:58;;;;;;;4.38;2.03;;;;;;;;;;5024829;28;20176;-63
2023/03/19 05:53:24;;;;;;;4.10;1.90;;;;;;;;;;5028283;28;20084;-66
2023/03/19 05:55:51;;;;;;;5.60;2.13;;;;;;;;;;5040787;28;20200;-66
2023/03/19 05:58:17;;;;;;;8.10;2.38;;;;;;;;;;5018598;28;20139;-65
2023/03/19 06:00:44;;;;;;;4.68;1.90;;;;;;;;;;5018493;28;20089;-65
2023/03/19 06:03:11;;;;;;;4.97;2.35;;;;;;;;;;5052591;28;20053;-67
2023/03/19 06:05:37;;;;;;;5.47;2.35;;;;;;;;;;5043842;28;20064;-64
2023/03/19 06:08:05;;;;;;;5.28;2.60;;;;;;;;;;5023527;28;20048;-64
2023/03/19 06:10:32;;;;;;;5.88;2.25;;;;;;;;;;5049137;28;20048;-66
2023/03/19 06:12:59;;;;;;;6.25;2.28;;;;;;;;;;5032807;28;20145;-64
2023/03/19 06:15:26;;;;;;;8.40;2.47;;;;;;;;;;5027056;28;20133;-66
2023/03/19 06:17:52;;;;;;;6.47;2.83;;;;;;;;;;5033079;28;20151;-65
2023/03/19 06:20:19;;;;;;;7.25;2.78;;;;;;;;;;5016037;28;20091;-64
2023/03/19 06:22:45;;;;;;;8.10;3.03;;;;;;;;;;5029626;28;20135;-66
2023/03/19 06:25:13;;;;;;;6.13;2.92;;;;;;;;;;5025706;28;20052;-66
2023/03/19 06:27:39;;;;;;;5.93;2.78;;;;;;;;;;5038604;28;20143;-65
2023/03/19 06:30:06;;;;;;;6.72;2.95;;;;;;;;;;5016048;28;20167;-67
2023/03/19 06:32:33;;;;;;;6.57;2.78;;;;;;;;;;5013926;28;20124;-66
2023/03/19 06:34:59;;;;;;;8.10;3.50;;;;;;;;;;5033928;28;20144;-65
2023/03/19 06:37:26;;;;;;;7.35;3.05;;;;;;;;;;5016598;28;20057;-67
2023/03/19 06:39:53;;;;;;;8.82;3.75;;;;;;;;;;5044374;28;20084;-64
2023/03/19 06:42:21;;;;;;;8.32;3.72;;;;;;;;;;5045840;28;20048;-66
2023/03/19 06:44:47;;;;;;;8.48;4.00;;;;;;;;;;5013548;28;20060;-67
2023/03/19 06:47:14;;;;;;;9.52;4.18;;;;;;;;;;5029002;28;20122;-67
2023/03/19 06:49:40;;;;;;;7.95;3.47;;;;;;;;;;5038003;28;20079;-65
2023/03/19 06:52:07;;;;;;;9.50;4.15;;;;;;;;;;5018890;28;20080;-67
2023/03/19 06:54:33;;;;;;;8.50;3.92;;;;;;;;;;5034928;28;20131;-66
2023/03/19 06:57:01;;;;;;;9.90;4.25;;;;;;;;;;5017708;28;20120;-67
2023/03/19 06:59:29;;;;;;;11.30;4.65;;;;;;;;;;5030497;28;20045;-66
2023/03/19 07:01:55;;;;;;;10.27;4.60;;;;;;;;;;5042733;28;20057;-66
2023/03/19 07:04:22;;;;;;;10.77;4.70;;;;;;;;;;5015367;28;20765;-67
2023/03/19 07:06:49;;;;;;;9.88;4.60;;;;;;;;;;5020563;28;20072;-65
2023/03/19 07:09:15;;;;;;;12.38;4.75;;;;;;;;;;5023758;28;20060;-66
2023/03/19 07:11:42;;;;;;;12.20;5.55;;;;;;;;;;5055940;28;20152;-66
2023/03/19 07:14:08;;;;;;;10.77;4.80;;;;;;;;;;5033620;28;20064;-65
2023/03/19 07:16:36;;;;;;;12.00;5.32;;;;;;;;;;5019988;28;20068;-65
2023/03/19 07:19:03;;;;;;;11.68;5.30;;;;;;;;;;5021985;28;20070;-67
2023/03/19 07:21:29;;;;;;;12.88;5.90;;;;;;;;;;5052575;28;20064;-65
2023/03/19 07:23:56;;;;;;;10.40;4.80;;;;;;;;;;5033504;28;20063;-66
2023/03/19 07:26:22;;;;;;;12.80;5.43;;;;;;;;;;5039136;28;20091;-66
2023/03/19 07:28:49;;;;;;;11.82;5.40;;;;;;;;;;5049594;28;20080;-65
2023/03/19 07:31:16;;;;;;;11.27;5.07;;;;;;;;;;5013581;28;20135;-65
2023/03/19 07:33:44;;;;;;;11.57;5.28;;;;;;;;;;5032562;28;20201;-67
2023/03/19 07:36:11;;;;;;;11.70;5.20;;;;;;;;;;5013262;28;20058;-65
2023/03/19 07:38:37;;;;;;;10.30;4.95;;;;;;;;;;5014692;28;20060;-66
2023/03/19 07:41:06;;;;;;;12.23;5.45;;;;;;;;;;4993045;28;20084;-68
2023/03/19 07:43:33;;;;;;;11.07;5.57;;;;;;;;;;5017978;28;20061;-65
2023/03/19 07:46:00;;;;;;;11.70;5.25;;;;;;;;;;4993757;28;20132;-67
2023/03/19 07:48:26;;;;;;;11.43;5.43;;;;;;;;;;5001016;28;20056;-66
2023/03/19 07:50:54;;;;;;;12.48;5.05;;;;;;;;;;5013920;28;20128;-65
2023/03/19 07:53:21;;;;;;;12.63;5.15;;;;;;;;;;4991367;28;20054;-66
2023/03/19 07:55:47;;;;;;;10.80;5.30;;;;;;;;;;4993797;28;20084;-66
2023/03/19 07:58:14;;;;;;;12.38;5.60;;;;;;;;;;5016541;28;20148;-67
2023/03/19 08:00:40;;;;;;;11.60;5.07;;;;;;;;;;5013700;28;20057;-67
2023/03/19 08:03:07;;;;;;;13.75;5.45;;;;;;;;;;5010656;28;20048;-65
2023/03/19 08:05:33;;;;;;;11.15;5.10;;;;;;;;;;5007825;28;20088;-67
2023/03/19 08:08:01;;;;;;;13.45;5.43;;;;;;;;;;5017222;28;20137;-65
2023/03/19 08:10:28;;;;;;;11.32;5.40;;;;;;;;;;5015234;28;20062;-66
2023/03/19 08:12:54;;;;;;;13.20;5.95;;;;;;;;;;5011364;28;20061;-67
2023/03/19 08:15:21;;;;;;;11.30;5.55;;;;;;;;;;5021867;28;20052;-67
2023/03/19 08:17:47;;;;;;;13.13;6.20;;;;;;;;;;4998285;28;20057;-66
2023/03/19 08:20:15;;;;;;;12.25;5.72;;;;;;;;;;4997521;28;20061;-65
2023/03/19 08:22:42;;;;;;;12.85;5.25;;;;;;;;;;4994579;28;20061;-65
2023/03/19 08:25:11;;;;;;;12.88;6.10;;;;;;;;;;4991974;28;20075;-65
2023/03/19 08:27:38;;;;;;;16.80;6.97;;;;;;;;;;4994623;28;20076;-65
2023/03/19 08:30:07;;;;;;;13.68;6.22;;;;;;;;;;4998199;28;20068;-64
2023/03/19 08:32:37;;;;;;;16.10;7.40;;;;;;;;;;4995492;28;20088;-66
2023/03/19 08:35:05;;;;;;;15.13;6.97;;;;;;;;;;4992862;28;20060;-64
2023/03/19 08:37:32;;;;;;;17.20;8.07;;;;;;;;;;5000298;28;20129;-66
2023/03/19 08:39:58;;;;;;;18.65;7.80;;;;;;;;;;4999694;28;20170;-64
2023/03/19 08:42:26;;;;;;;19.15;9.25;;;;;;;;;;4995301;28;20061;-64
2023/03/19 08:44:53;;;;;;;17.33;9.55;;;;;;;;;;5015854;28;20056;-66
2023/03/19 08:47:23;;;;;;;16.65;8.65;;;;;;;;;;4999710;28;20369;-66
2023/03/19 08:49:49;;;;;;;16.60;8.88;;;;;;;;;;5016038;28;20111;-65
2023/03/19 08:52:16;;;;;;;19.23;8.23;;;;;;;;;;5013217;28;20060;-65
2023/03/19 08:54:42;;;;;;;20.42;8.88;;;;;;;;;;5014498;28;20157;-64
2023/03/19 08:57:11;;;;;;;17.45;9.57;;;;;;;;;;4978204;28;20061;-65
2023/03/19 08:59:39;;;;;;;20.42;9.18;;;;;;;;;;5015787;28;20057;-67
2023/03/19 09:02:06;;;;;;;21.23;9.27;;;;;;;;;;5014605;28;20057;-67
2023/03/19 09:04:36;;;;;;;18.95;9.80;;;;;;;;;;5012668;28;20319;-65
2023/03/19 09:07:02;;;;;;;19.55;9.27;;;;;;;;;;4986370;28;20084;-66
2023/03/19 09:09:31;;;;;;;18.08;9.88;;;;;;;;;;5008637;28;20104;-65
2023/03/19 09:11:57;;;;;;;20.23;9.30;;;;;;;;;;5011540;28;20049;-64
2023/03/19 09:14:24;;;;;;;21.98;10.32;;;;;;;;;;5019812;28;20091;-67
2023/03/19 09:16:52;;;;;;;20.58;9.68;;;;;;;;;;4992560;28;20094;-65
2023/03/19 09:19:18;;;;;;;21.05;9.93;;;;;;;;;;5002587;28;20261;-65
2023/03/19 09:21:45;;;;;;;18.67;10.13;;;;;;;;;;5021507;28;20053;-64
2023/03/19 09:24:12;;;;;;;19.48;9.98;;;;;;;;;;5007192;28;20108;-65
2023/03/19 09:26:38;;;;;;;19.83;10.60;;;;;;;;;;5013125;28;20059;-64
2023/03/19 09:29:05;;;;;;;18.98;9.75;;;;;;;;;;5013436;28;20057;-67
2023/03/19 09:31:31;;;;;;;19.85;9.93;;;;;;;;;;5000360;28;20114;-65
2023/03/19 09:33:59;;;;;;;19.63;9.38;;;;;;;;;;4990417;28;20057;-66
2023/03/19 09:36:26;;;;;;;16.50;9.67;;;;;;;;;;5002291;28;20171;-66
2023/03/19 09:38:52;;;;;;;20.55;10.70;;;;;;;;;;4992762;28;20308;-65
2023/03/19 09:41:25;;;;;;;18.33;10.00;;;;;;;;;;4990885;28;20149;-64
2023/03/19 09:43:57;;;;;;;22.00;10.77;;;;;;;;;;4991760;28;20135;-67
2023/03/19 09:46:26;;;;;;;21.38;10.32;;;;;;;;;;4997488;28;20049;-67
2023/03/19 09:48:56;;;;;;;21.05;10.05;;;;;;;;;;5014382;28;20063;-69
2023/03/19 09:51:29;;;;;;;26.98;12.70;;;;;;;;;;4988812;28;20061;-66
2023/03/19 09:53:57;;;;;;;22.17;11.63;;;;;;;;;;5009985;28;20053;-64
2023/03/19 09:56:25;;;;;;;22.77;11.80;;;;;;;;;;5003045;28;20068;-65
2023/03/19 09:58:51;;;;;;;22.58;12.35;;;;;;;;;;5015493;28;20152;-64
2023/03/19 10:01:23;;;;;;;24.13;12.70;;;;;;;;;;4976989;28;20065;-65
2023/03/19 10:03:57;;;;;;;27.02;13.57;;;;;;;;;;4994245;28;20068;-66
2023/03/19 10:06:31;;;;;;;23.80;13.05;;;;;;;;;;4997967;28;20054;-64
2023/03/19 10:09:15;;;;;;;25.92;13.18;;;;;;;;;;5008313;28;20141;-65
2023/03/19 10:11:51;;;;;;;26.58;13.60;;;;;;;;;;4999651;28;20148;-64
2023/03/19 10:14:32;;;;;;;25.27;13.13;;;;;;;;;;4993362;28;20053;-64
2023/03/19 10:17:01;;;;;;;29.52;14.15;;;;;;;;;;5004850;28;20057;-64
2023/03/19 10:19:31;;;;;;;26.05;14.30;;;;;;;;;;4990136;28;20077;-65
2023/03/19 10:22:03;;;;;;;27.90;14.13;;;;;;;;;;4996357;28;20053;-64
2023/03/19 10:24:32;;;;;;;29.40;14.52;;;;;;;;;;4998303;28;20049;-63
2023/03/19 10:27:00;;;;;;;30.67;14.80;;;;;;;;;;4995730;28;20049;-65
2023/03/19 10:29:27;;;;;;;29.80;14.98;;;;;;;;;;5013542;28;20065;-65
2023/03/19 10:31:59;;;;;;;33.28;13.90;;;;;;;;;;4988913;28;20085;-63
2023/03/19 10:34:31;;;;;;;27.40;13.48;;;;;;;;;;4991173;28;20189;-64
2023/03/19 10:37:00;;;;;;;28.08;14.15;;;;;;;;;;5014952;28;20080;-64
2023/03/19 10:39:27;;;;;;;27.90;14.05;;;;;;;;;;5030846;28;20180;-65
2023/03/19 10:42:00;;;;;;;27.00;13.60;;;;;;;;;;5021793;28;20057;-64
2023/03/19 10:44:29;;;;;;;29.50;13.65;;;;;;;;;;5016302;28;20068;-64
2023/03/19 10:46:57;;;;;;;26.00;13.38;;;;;;;;;;5027105;28;20057;-64
2023/03/19 10:49:24;;;;;;;25.50;13.07;;;;;;;;;;5011065;28;20097;-64
2023/03/19 10:51:51;;;;;;;26.65;13.10;;;;;;;;;;5014945;28;20057;-64
2023/03/19 10:54:21;;;;;;;28.60;13.23;;;;;;;;;;5019208;28;20053;-66
2023/03/19 10:56:48;;;;;;;26.02;12.90;;;;;;;;;;5035173;28;20052;-65
2023/03/19 10:59:23;;;;;;;26.75;13.35;;;;;;;;;;5012148;28;20061;-64
2023/03/19 11:01:55;;;;;;;23.25;11.82;;;;;;;;;;5018042;28;20053;-65
2023/03/19 11:04:22;;;;;;;28.45;12.95;;;;;;;;;;5017986;28;20063;-64
2023/03/19 11:06:51;;;;;;;25.67;12.45;;;;;;;;;;5042704;28;20056;-66
2023/03/19 11:09:23;;;;;;;23.70;11.93;;;;;;;;;;5025351;28;20075;-64
2023/03/19 11:11:53;;;;;;;22.15;11.60;;;;;;;;;;5060409;28;20059;-65
2023/03/19 11:14:20;;;;;;;24.67;12.43;;;;;;;;;;5033550;28;20067;-65
2023/03/19 11:16:51;;;;;;;27.70;11.97;;;;;;;;;;5042007;28;20064;-65
2023/03/19 11:19:22;;;;;;;24.92;10.85;;;;;;;;;;5000656;28;20071;-67
2023/03/19 11:22:02;;;;;;;27.40;12.60;;;;;;;;;;5036993;28;20147;-66
2023/03/19 11:24:36;;;;;;;33.03;13.27;;;;;;;;;;4953925;28;20083;-65
2023/03/19 11:27:03;;;;;;;27.77;11.90;;;;;;;;;;5033639;28;20223;-64
2023/03/19 11:29:29;;;;;;;27.17;12.52;;;;;;;;;;5045624;28;20055;-65
2023/03/19 11:31:59;;;;;;;24.05;11.48;;;;;;;;;;5040499;28;20052;-67
2023/03/19 11:34:42;;;;;;;22.75;11.20;;;;;;;;;;5003597;28;20060;-65
2023/03/19 11:37:11;;;;;;;20.20;11.27;;;;;;;;;;5015420;28;20120;-65
2023/03/19 11:39:45;;;;;;;25.00;11.75;;;;;;;;;;5027307;28;20155;-65
2023/03/19 11:42:33;;;;;;;28.13;11.68;;;;;;;;;;5031236;28;20057;-66
2023/03/19 11:45:04;;;;;;;23.17;10.38;;;;;;;;;;4989618;28;20053;-65
2023/03/19 11:47:34;;;;;;;22.85;11.30;;;;;;;;;;4989800;28;20128;-65
2023/03/19 11:50:08;;;;;;;25.70;11.68;;;;;;;;;;5012669;28;20236;-64
2023/03/19 11:52:38;;;;;;;24.23;11.50;;;;;;;;;;5040457;28;20053;-65
2023/03/19 11:55:18;;;;;;;23.98;10.55;;;;;;;;;;5027559;28;20122;-64
2023/03/19 11:57:56;;;;;;;23.67;11.45;;;;;;;;;;5027605;28;20063;-66
2023/03/19 12:00:28;;;;;;;24.65;10.98;;;;;;;;;;5033619;28;20066;-66
2023/03/19 12:03:13;;;;;;;25.92;11.52;;;;;;;;;;5049067;28;20081;-65
2023/03/19 12:05:46;;;;;;;24.58;10.50;;;;;;;;;;5017849;28;20053;-65
2023/03/19 12:08:19;;;;;;;27.13;11.13;;;;;;;;;;5025482;28;20140;-66
2023/03/19 12:10:53;;;;;;;25.95;10.88;;;;;;;;;;5034868;28;20088;-65
2023/03/19 12:13:25;;;;;;;25.33;11.15;;;;;;;;;;5027118;28;20106;-66
2023/03/19 12:15:57;;;;;;;22.63;10.55;;;;;;;;;;5003077;28;20040;-65
2023/03/19 12:18:35;;;;;;;25.02;11.10;;;;;;;;;;5032965;28;20052;-64
2023/03/19 12:21:08;;;;;;;27.65;10.98;;;;;;;;;;5043646;28;20124;-64
2023/03/19 12:23:39;;;;;;;22.40;10.90;;;;;;;;;;5028313;28;20052;-65
2023/03/19 12:26:09;;;;;;;25.77;10.85;;;;;;;;;;5011712;28;20052;-64
2023/03/19 12:28:40;;;;;;;23.33;10.90;;;;;;;;;;5028838;28;20052;-66
2023/03/19 12:31:19;;;;;;;20.88;9.80;;;;;;;;;;5026647;28;20049;-66
2023/03/19 12:33:49;;;;;;;26.20;11.77;;;;;;;;;;5016239;28;20147;-65
2023/03/19 12:36:18;;;;;;;19.10;9.77;;;;;;;;;;5026433;28;20080;-65
2023/03/19 12:38:51;;;;;;;24.42;11.43;;;;;;;;;;5011974;28;20064;-65
2023/03/19 12:41:21;;;;;;;24.95;10.23;;;;;;;;;;5016781;28;20044;-64
2023/03/19 12:43:56;;;;;;;24.02;10.48;;;;;;;;;;5044567;28;20056;-64
2023/03/19 12:46:27;;;;;;;24.02;10.23;;;;;;;;;;5025444;28;20107;-66
2023/03/19 12:49:01;;;;;;;24.63;10.52;;;;;;;;;;5039643;28;20083;-66
2023/03/19 12:51:31;;;;;;;28.15;10.77;;;;;;;;;;5020407;28;20163;-64
2023/03/19 12:54:04;;;;;;;23.75;9.35;;;;;;;;;;5016373;28;20064;-65
2023/03/19 12:56:38;;;;;;;25.13;9.93;;;;;;;;;;5001609;28;20068;-66
2023/03/19 12:59:09;;;;;;;28.25;9.93;;;;;;;;;;5017753;28;20307;-65
2023/03/19 13:01:41;;;;;;;22.80;10.20;;;;;;;;;;5016640;28;20091;-66
2023/03/19 13:04:14;;;;;;;22.80;9.95;;;;;;;;;;5007885;28;20049;-66
2023/03/19 13:06:43;;;;;;;19.73;9.88;;;;;;;;;;5012369;28;20166;-66
2023/03/19 13:09:14;;;;;;;20.73;9.63;;;;;;;;;;5028084;28;20052;-63
2023/03/19 13:11:47;;;;;;;19.60;9.57;;;;;;;;;;5024316;28;20428;-65
2023/03/19 13:14:18;;;;;;;23.33;9.48;;;;;;;;;;5014414;28;20057;-64
2023/03/19 13:16:48;;;;;;;21.98;8.80;;;;;;;;;;5029509;28;20056;-64
2023/03/19 13:19:19;;;;;;;18.98;8.55;;;;;;;;;;5031964;28;20061;-65
2023/03/19 13:21:46;;;;;;;20.67;8.77;;;;;;;;;;5017040;28;20079;-64
2023/03/19 13:24:19;;;;;;;18.63;8.30;;;;;;;;;;5000019;28;20069;-65
2023/03/19 13:26:51;;;;;;;19.27;8.18;;;;;;;;;;5033259;28;20048;-65
2023/03/19 13:29:20;;;;;;;20.50;8.85;;;;;;;;;;5027845;28;20079;-65
2023/03/19 13:31:46;;;;;;;19.55;8.68;;;;;;;;;;5037500;28;20064;-64
2023/03/19 13:34:31;;;;;;;19.30;8.52;;;;;;;;;;4963660;28;20055;-65
2023/03/19 13:37:00;;;;;;;20.80;8.73;;;;;;;;;;5022734;28;20053;-63
2023/03/19 13:39:31;;;;;;;17.10;8.02;;;;;;;;;;5019912;28;20064;-65
2023/03/19 13:42:07;;;;;;;15.70;7.65;;;;;;;;;;5005721;28;20068;-65
2023/03/19 13:44:41;;;;;;;19.40;8.18;;;;;;;;;;5000215;28;20478;-65
2023/03/19 13:47:25;;;;;;;17.35;7.82;;;;;;;;;;5041947;28;20145;-64
2023/03/19 13:50:04;;;;;;;17.27;7.78;;;;;;;;;;5014156;28;20059;-64
2023/03/19 13:52:42;;;;;;;17.63;8.23;;;;;;;;;;5036910;28;20056;-64
2023/03/19 13:55:30;;;;;;;16.92;7.57;;;;;;;;;;5032911;28;20130;-67
2023/03/19 13:58:10;;;;;;;16.73;7.55;;;;;;;;;;5034048;28;20053;-64
2023/03/19 14:00:55;;;;;;;17.00;8.07;;;;;;;;;;4997207;28;20056;-66
2023/03/19 14:03:26;;;;;;;15.57;7.38;;;;;;;;;;5035698;28;20064;-66
2023/03/19 14:05:55;;;;;;;16.83;7.85;;;;;;;;;;5028823;28;20051;-66
2023/03/19 14:08:22;;;;;;;;;;;;;;;;;;5024623;28;20060;-67
2023/03/19 14:10:49;;;;;;;18.50;7.32;;;;;;;;;;5012813;28;19993;-63
2023/03/19 14:13:20;;;;;;;17.60;7.70;;;;;;;;;;5017237;28;20059;-66
2023/03/19 14:15:49;;;;;;;15.80;7.55;;;;;;;;;;5015673;28;20246;-66
2023/03/19 14:18:24;;;;;;;;;;;;;;;;;;5014698;28;20138;-67
2023/03/19 14:20:56;;;;;;;15.25;6.78;;;;;;;;;;5022579;28;19963;-64
2023/03/19 14:23:27;;;;;;;17.42;7.63;;;;;;;;;;4997267;28;20053;-65
2023/03/19 14:26:04;;;;;;;15.82;7.65;;;;;;;;;;5010938;28;20139;-65
2023/03/19 14:28:35;;;;;;;14.93;7.35;;;;;;;;;;5024154;28;20052;-67
2023/03/19 14:31:05;;;;;;;17.67;7.82;;;;;;;;;;5021613;28;20076;-66
2023/03/19 14:33:39;;;;;;;15.48;7.30;;;;;;;;;;5041925;28;20057;-66
2023/03/19 14:36:06;;;;;;;16.73;7.63;;;;;;;;;;4980474;28;20053;-68
2023/03/19 14:38:36;;;;;;;17.40;7.15;;;;;;;;;;5005157;28;20086;-65
2023/03/19 14:41:04;;;;;;;16.63;7.80;;;;;;;;;;5002744;28;20053;-65
2023/03/19 14:43:44;;;;;;;15.70;7.20;;;;;;;;;;5033156;28;20083;-65
2023/03/19 14:46:19;;;;;;;15.60;7.07;;;;;;;;;;5008235;28;20050;-67
2023/03/19 14:48:55;;;;;;;17.77;7.13;;;;;;;;;;5051095;28;20114;-67